createdAt,value
2022-08-12T00:00:16.936Z,62.85
2022-08-12T00:01:16.946Z,62.85
2022-08-12T00:02:16.915Z,62.74
2022-08-12T00:03:17.663Z,62.44
2022-08-12T00:04:16.895Z,62.51
2022-08-12T00:05:16.866Z,62.21
2022-08-12T00:06:16.855Z,62.41
2022-08-12T00:07:16.854Z,62.01
2022-08-12T00:08:17.256Z,61.71
2022-08-12T00:09:17.829Z,62.01
2022-08-12T00:10:16.806Z,61.91
2022-08-12T00:11:16.785Z,61.91
2022-08-12T00:12:16.795Z,61.80
2022-08-12T00:13:17.149Z,62.01
2022-08-12T00:14:16.775Z,62.01
2022-08-12T00:15:16.734Z,62.21
2022-08-12T00:16:16.724Z,62.31
2022-08-12T00:17:16.716Z,62.51
2022-08-12T00:18:17.124Z,62.41
2022-08-12T00:19:16.688Z,62.41
2022-08-12T00:20:16.665Z,62.51
2022-08-12T00:21:16.653Z,62.51
2022-08-12T00:22:16.643Z,62.62
2022-08-12T00:23:17.054Z,62.71
2022-08-12T00:24:16.615Z,62.95
2022-08-12T00:25:16.602Z,63.15
2022-08-12T00:26:23.316Z,63.25
2022-08-12T00:27:18.003Z,63.35
2022-08-12T00:28:16.601Z,63.55
2022-08-12T00:29:16.550Z,63.35
2022-08-12T00:30:16.553Z,63.25
2022-08-12T00:31:16.521Z,63.12
2022-08-12T00:32:35.199Z,63.02
2022-08-12T00:33:17.494Z,63.12
2022-08-12T00:34:16.509Z,63.32
2022-08-12T00:35:16.462Z,63.22
2022-08-12T00:36:35.214Z,63.05
2022-08-12T00:37:17.812Z,63.05
2022-08-12T00:38:16.430Z,63.25
2022-08-12T00:39:16.460Z,63.55
2022-08-12T00:40:16.400Z,63.96
2022-08-12T00:41:16.413Z,63.76
2022-08-12T00:42:16.798Z,63.76
2022-08-12T00:43:16.361Z,63.76
2022-08-12T00:44:16.348Z,63.85
2022-08-12T00:45:16.331Z,63.76
2022-08-12T00:46:16.320Z,63.76
2022-08-12T00:47:24.816Z,63.65
2022-08-12T00:48:17.302Z,63.65
2022-08-12T00:49:16.281Z,63.62
2022-08-12T00:50:16.267Z,63.73
2022-08-12T00:51:16.256Z,63.73
2022-08-12T00:52:16.618Z,63.73
2022-08-12T00:53:16.238Z,63.73
2022-08-12T00:54:16.210Z,63.62
2022-08-12T00:55:16.197Z,63.93
2022-08-12T00:56:16.208Z,64.03
2022-08-12T00:57:16.588Z,63.82
2022-08-12T00:58:16.158Z,63.93
2022-08-12T00:59:16.146Z,63.82
2022-08-12T01:00:16.141Z,63.73
2022-08-12T01:01:16.571Z,63.82
2022-08-12T01:02:16.155Z,63.62
2022-08-12T01:03:16.098Z,63.62
2022-08-12T01:04:16.086Z,63.73
2022-08-12T01:05:16.079Z,63.93
2022-08-12T01:06:16.387Z,64.03
2022-08-12T01:07:16.042Z,64.13
2022-08-12T01:08:16.023Z,63.93
2022-08-12T01:09:16.015Z,64.03
2022-08-12T01:10:15.996Z,64.03
2022-08-12T01:11:16.410Z,63.93
2022-08-12T01:12:15.977Z,64.03
2022-08-12T01:13:19.933Z,64.23
2022-08-12T01:14:15.944Z,64.33
2022-08-12T01:15:15.942Z,64.33
2022-08-12T01:16:16.293Z,64.43
2022-08-12T01:17:15.945Z,64.23
2022-08-12T01:18:15.885Z,64.23
2022-08-12T01:19:15.887Z,64.33
2022-08-12T01:20:16.860Z,64.33
2022-08-12T01:21:16.195Z,64.33
2022-08-12T01:22:15.845Z,64.53
2022-08-12T01:23:15.843Z,64.53
2022-08-12T01:24:29.549Z,64.43
2022-08-12T01:25:16.796Z,64.67
2022-08-12T01:26:16.115Z,64.67
2022-08-12T01:27:15.780Z,64.76
2022-08-12T01:28:15.751Z,64.87
2022-08-12T01:29:15.750Z,64.97
2022-08-12T01:30:15.730Z,65.07
2022-08-12T01:31:16.514Z,65.40
2022-08-12T01:32:15.722Z,65.50
2022-08-12T01:33:15.682Z,65.61
2022-08-12T01:34:35.314Z,65.50
2022-08-12T01:35:17.020Z,65.61
2022-08-12T01:36:15.663Z,65.50
2022-08-12T01:37:15.622Z,65.61
2022-08-12T01:38:15.615Z,65.57
2022-08-12T01:39:15.632Z,65.67
2022-08-12T01:40:33.443Z,65.27
2022-08-12T01:41:16.594Z,64.84
2022-08-12T01:42:15.570Z,64.53
2022-08-12T01:43:15.551Z,63.90
2022-08-12T01:44:15.943Z,63.39
2022-08-12T01:45:16.942Z,62.85
2022-08-12T01:46:15.508Z,62.76
2022-08-12T01:47:15.489Z,62.76
2022-08-12T01:48:15.482Z,62.45
2022-08-12T01:49:15.525Z,62.55
2022-08-12T01:50:15.819Z,62.45
2022-08-12T01:52:14.831Z,62.43
2022-08-12T01:52:22.026Z,62.22
2022-08-12T01:53:16.408Z,62.12
2022-08-12T01:54:15.410Z,62.12
2022-08-12T01:55:15.386Z,62.32
2022-08-12T01:56:15.819Z,62.43
2022-08-12T01:57:15.369Z,62.76
2022-08-12T01:58:16.347Z,62.96
2022-08-12T01:59:15.337Z,63.16
2022-08-12T02:00:15.319Z,63.36
2022-08-12T02:01:15.346Z,63.70
2022-08-12T02:02:15.738Z,63.59
2022-08-12T02:03:15.288Z,63.46
2022-08-12T02:04:15.267Z,62.96
2022-08-12T02:05:15.254Z,62.65
2022-08-12T02:06:15.238Z,62.43
2022-08-12T02:07:15.232Z,62.22
2022-08-12T02:08:15.635Z,62.22
2022-08-12T02:09:15.199Z,62.22
2022-08-12T02:10:50.004Z,62.12
2022-08-12T02:11:16.173Z,62.22
2022-08-12T02:12:15.164Z,62.32
2022-08-12T02:13:15.145Z,62.52
2022-08-12T02:14:15.496Z,63.06
2022-08-12T02:15:15.125Z,63.16
2022-08-12T02:16:15.104Z,63.56
2022-08-12T02:17:15.096Z,63.79
2022-08-12T02:18:15.075Z,64.00
2022-08-12T02:19:22.671Z,64.40
2022-08-12T02:20:16.061Z,64.73
2022-08-12T02:21:15.034Z,64.73
2022-08-12T02:22:15.020Z,64.73
2022-08-12T02:23:15.015Z,64.64
2022-08-12T02:24:14.995Z,64.64
2022-08-12T02:25:15.332Z,64.64
2022-08-12T02:26:14.981Z,64.73
2022-08-12T02:27:14.971Z,64.43
2022-08-12T02:28:14.943Z,64.53
2022-08-12T02:29:14.930Z,64.84
2022-08-12T02:30:14.926Z,65.04
2022-08-12T02:31:15.280Z,65.27
2022-08-12T02:32:14.900Z,65.37
2022-08-12T02:33:14.882Z,65.67
2022-08-12T02:34:14.853Z,65.78
2022-08-12T02:35:14.861Z,65.78
2022-08-12T02:36:14.861Z,65.67
2022-08-12T02:37:15.244Z,65.98
2022-08-12T02:38:14.803Z,66.11
2022-08-12T02:39:14.837Z,66.21
2022-08-12T02:40:14.799Z,66.31
2022-08-12T02:41:14.782Z,66.21
2022-08-12T02:42:14.763Z,66.31
2022-08-12T02:43:15.180Z,66.41
2022-08-12T02:44:14.727Z,66.21
2022-08-12T02:45:14.723Z,66.41
2022-08-12T02:46:15.279Z,66.41
2022-08-12T02:48:00.356Z,66.61
2022-08-12T02:48:16.119Z,67.12
2022-08-12T02:49:14.662Z,66.95
2022-08-12T02:50:14.643Z,66.95
2022-08-12T02:51:14.639Z,67.25
2022-08-12T02:52:14.629Z,67.46
2022-08-12T02:53:14.969Z,67.46
2022-08-12T02:54:14.591Z,67.89
2022-08-12T02:55:28.658Z,67.99
2022-08-12T02:56:15.570Z,67.99
2022-08-12T02:57:14.558Z,67.99
2022-08-12T02:58:14.868Z,68.33
2022-08-12T02:59:14.848Z,68.53
2022-08-12T03:00:14.509Z,68.94
2022-08-12T03:01:14.539Z,70.25
2022-08-12T03:02:14.488Z,70.05
2022-08-12T03:03:14.477Z,72.01
2022-08-12T03:04:20.394Z,73.53
2022-08-12T03:05:15.453Z,71.70
2022-08-12T03:06:14.436Z,70.42
2022-08-12T03:07:14.432Z,70.93
2022-08-12T03:08:31.424Z,71.53
2022-08-12T03:09:16.558Z,71.88
2022-08-12T03:10:17.722Z,72.28
2022-08-12T03:11:15.074Z,72.48
2022-08-12T03:12:20.011Z,72.68
2022-08-12T03:13:15.347Z,72.68
2022-08-12T03:14:14.339Z,72.28
2022-08-12T03:15:14.887Z,72.28
2022-08-12T03:16:14.306Z,72.52
2022-08-12T03:17:14.296Z,72.52
2022-08-12T03:18:26.403Z,72.52
2022-08-12T03:19:15.705Z,72.52
2022-08-12T03:20:14.253Z,72.82
2022-08-12T03:21:14.244Z,72.72
2022-08-12T03:22:14.224Z,72.92
2022-08-12T03:23:21.576Z,73.22
2022-08-12T03:24:15.194Z,73.53
2022-08-12T03:25:14.615Z,73.73
2022-08-12T03:26:14.174Z,73.63
2022-08-12T03:27:14.161Z,74.04
2022-08-12T03:28:23.556Z,74.48
2022-08-12T03:29:15.141Z,74.58
2022-08-12T03:30:14.544Z,74.58
2022-08-12T03:31:14.107Z,74.58
2022-08-12T03:32:36.221Z,74.92
2022-08-12T03:33:15.094Z,74.92
2022-08-12T03:34:14.072Z,74.92
2022-08-12T03:35:37.002Z,75.32
2022-08-12T03:36:15.482Z,75.02
2022-08-12T03:37:14.039Z,75.46
2022-08-12T03:38:14.021Z,75.26
2022-08-12T03:39:14.095Z,76.17
2022-08-12T03:40:14.021Z,76.28
2022-08-12T03:41:14.403Z,76.34
2022-08-12T03:42:13.972Z,76.34
2022-08-12T03:43:13.948Z,76.44
2022-08-12T03:44:13.940Z,76.14
2022-08-12T03:45:13.920Z,76.44
2022-08-12T03:46:14.338Z,76.34
2022-08-12T03:47:13.904Z,76.24
2022-08-12T03:48:19.397Z,76.24
2022-08-12T03:49:14.879Z,76.24
2022-08-12T03:50:13.852Z,76.07
2022-08-12T03:51:13.864Z,76.17
2022-08-12T03:52:14.269Z,76.17
2022-08-12T03:53:13.819Z,76.28
2022-08-12T03:54:13.808Z,76.58
2022-08-12T03:55:13.798Z,76.17
2022-08-12T03:56:14.159Z,76.17
2022-08-12T03:57:13.769Z,75.97
2022-08-12T03:58:13.777Z,76.07
2022-08-12T03:59:13.763Z,75.67
2022-08-12T04:00:23.959Z,75.56
2022-08-12T04:01:15.128Z,75.46
2022-08-12T04:02:13.704Z,75.46
2022-08-12T04:03:13.698Z,75.46
2022-08-12T04:04:13.677Z,75.56
2022-08-12T04:05:13.677Z,75.67
2022-08-12T04:06:14.968Z,76.07
2022-08-12T04:07:13.651Z,77.09
2022-08-12T04:08:13.636Z,77.49
2022-08-12T04:09:16.239Z,76.68
2022-08-12T04:10:13.616Z,76.82
2022-08-12T04:11:13.956Z,78.00
2022-08-12T04:12:13.575Z,78.91
2022-08-12T04:13:13.565Z,78.81
2022-08-12T04:14:13.556Z,78.61
2022-08-12T04:15:13.544Z,78.30
2022-08-12T04:16:13.545Z,78.64
2022-08-12T04:17:13.855Z,78.85
2022-08-12T04:18:13.515Z,78.85
2022-08-12T04:19:13.503Z,78.95
2022-08-12T04:20:13.484Z,78.95
2022-08-12T04:21:13.476Z,79.66
2022-08-12T04:22:13.453Z,80.78
2022-08-12T04:23:16.669Z,81.53
2022-08-12T04:24:13.433Z,82.14
2022-08-12T04:25:13.423Z,82.34
2022-08-12T04:26:13.421Z,82.65
2022-08-12T04:27:13.393Z,83.15
2022-08-12T04:28:14.005Z,83.15
2022-08-12T04:29:13.791Z,82.95
2022-08-12T04:30:30.289Z,82.75
2022-08-12T04:31:14.356Z,82.04
2022-08-12T04:32:13.333Z,81.84
2022-08-12T04:33:13.321Z,81.93
2022-08-12T04:34:13.317Z,81.73
2022-08-12T04:35:13.322Z,81.84
2022-08-12T04:36:13.292Z,82.45
2022-08-12T04:37:13.270Z,81.73
2022-08-12T04:38:13.252Z,82.24
2022-08-12T04:39:13.303Z,82.75
2022-08-12T04:40:13.314Z,82.85
2022-08-12T04:41:13.271Z,82.85
2022-08-12T04:42:13.216Z,82.75
2022-08-12T04:44:00.684Z,82.65
2022-08-12T04:44:14.189Z,82.24
2022-08-12T04:45:13.541Z,82.45
2022-08-12T04:46:14.161Z,82.45
2022-08-12T04:47:13.155Z,82.34
2022-08-12T04:48:13.140Z,82.34
2022-08-12T04:49:13.121Z,82.45
2022-08-12T04:50:34.112Z,82.54
2022-08-12T04:51:14.459Z,82.65
2022-08-12T04:52:13.079Z,82.34
2022-08-12T04:53:13.070Z,82.65
2022-08-12T04:54:13.064Z,82.34
2022-08-12T04:55:13.048Z,82.24
2022-08-12T04:56:13.051Z,82.14
2022-08-12T04:57:13.351Z,82.34
2022-08-12T04:58:13.009Z,82.04
2022-08-12T04:59:13.006Z,82.04
2022-08-12T05:00:12.990Z,82.14
2022-08-12T05:01:12.979Z,82.40
2022-08-12T05:02:16.790Z,82.20
2022-08-12T05:03:14.295Z,82.40
2022-08-12T05:04:12.966Z,82.20
2022-08-12T05:05:12.955Z,82.51
2022-08-12T05:06:20.810Z,82.10
2022-08-12T05:07:14.246Z,81.70
2022-08-12T05:08:12.882Z,81.25
2022-08-12T05:09:13.449Z,81.66
2022-08-12T05:10:12.856Z,81.35
2022-08-12T05:11:12.845Z,81.05
2022-08-12T05:12:12.844Z,80.10
2022-08-12T05:13:13.174Z,79.99
2022-08-12T05:14:12.801Z,78.88
2022-08-12T05:15:27.379Z,78.74
2022-08-12T05:16:13.809Z,77.93
2022-08-12T05:17:12.765Z,77.48
2022-08-12T05:18:19.502Z,76.84
2022-08-12T05:19:18.573Z,76.03
2022-08-12T05:20:13.733Z,75.08
2022-08-12T05:21:12.713Z,74.04
2022-08-12T05:22:12.695Z,74.04
2022-08-12T05:23:13.605Z,73.49
2022-08-12T05:24:13.103Z,72.99
2022-08-12T05:25:12.659Z,72.48
2022-08-12T05:26:12.653Z,72.75
2022-08-12T05:27:12.636Z,72.95
2022-08-12T05:28:13.003Z,72.04
2022-08-12T05:30:05.419Z,72.11
2022-08-12T05:30:13.603Z,72.61
2022-08-12T05:31:12.581Z,71.60
2022-08-12T05:32:12.569Z,71.60
2022-08-12T05:33:12.951Z,71.17
2022-08-12T05:34:12.541Z,70.46
2022-08-12T05:35:12.530Z,70.36
2022-08-12T05:36:12.516Z,69.75
2022-08-12T05:37:12.499Z,69.42
2022-08-12T05:38:12.831Z,69.51
2022-08-12T05:39:12.529Z,69.42
2022-08-12T05:40:12.466Z,69.18
2022-08-12T05:41:12.450Z,69.28
2022-08-12T05:42:12.447Z,68.47
2022-08-12T05:43:12.849Z,68.47
2022-08-12T05:44:12.408Z,68.33
2022-08-12T05:45:12.398Z,68.33
2022-08-12T05:46:12.406Z,68.54
2022-08-12T05:47:12.809Z,67.90
2022-08-12T05:48:12.348Z,68.30
2022-08-12T05:49:12.356Z,67.90
2022-08-12T05:50:12.327Z,66.79
2022-08-12T05:51:12.320Z,67.27
2022-08-12T05:52:12.686Z,66.96
2022-08-12T05:53:12.307Z,67.16
2022-08-12T05:54:12.347Z,66.05
2022-08-12T05:55:12.485Z,66.05
2022-08-12T05:56:12.248Z,66.46
2022-08-12T05:57:12.713Z,66.36
2022-08-12T05:58:12.236Z,66.13
2022-08-12T05:59:12.364Z,65.92
2022-08-12T06:00:12.233Z,65.82
2022-08-12T06:02:11.231Z,65.22
2022-08-12T06:02:13.841Z,65.39
2022-08-12T06:03:12.239Z,64.89
2022-08-12T06:04:12.147Z,64.69
2022-08-12T06:05:12.197Z,65.19
2022-08-12T06:06:12.125Z,65.29
2022-08-12T06:08:00.076Z,64.38
2022-08-12T06:08:13.443Z,64.28
2022-08-12T06:09:12.088Z,64.05
2022-08-12T06:10:12.082Z,64.35
2022-08-12T06:11:12.095Z,64.55
2022-08-12T06:12:12.066Z,63.82
2022-08-12T06:13:12.055Z,63.51
2022-08-12T06:14:12.418Z,63.28
2022-08-12T06:15:12.004Z,62.08
2022-08-12T06:16:11.994Z,58.99
2022-08-12T06:17:11.985Z,57.10
2022-08-12T06:18:15.899Z,56.02
2022-08-12T06:19:12.385Z,54.77
2022-08-12T06:20:22.846Z,53.14
2022-08-12T06:21:12.924Z,52.82
2022-08-12T06:22:11.914Z,51.89
2022-08-12T06:23:12.120Z,51.05
2022-08-12T06:24:11.891Z,50.30
2022-08-12T06:25:18.393Z,49.76
2022-08-12T06:26:13.162Z,48.74
2022-08-12T06:27:11.866Z,48.11
2022-08-12T06:28:11.844Z,47.50
2022-08-12T06:29:11.824Z,46.86
2022-08-12T06:30:17.208Z,45.86
2022-08-12T06:31:25.891Z,45.84
2022-08-12T06:33:24.521Z,46.36
2022-08-12T06:35:27.128Z,46.26
2022-08-12T06:35:46.863Z,46.04
2022-08-12T06:36:22.921Z,45.64
2022-08-12T06:37:28.948Z,44.93
2022-08-12T06:38:28.904Z,44.13
2022-08-12T06:39:21.917Z,43.85
2022-08-12T06:40:29.246Z,44.43
2022-08-12T06:41:28.853Z,44.51
2022-08-12T06:42:33.187Z,43.87
2022-08-12T06:45:45.938Z,42.25
2022-08-12T06:47:52.344Z,42.80
2022-08-12T06:48:59.623Z,42.92
2022-08-12T06:49:59.322Z,43.08
2022-08-12T06:50:59.528Z,42.68
2022-08-12T06:51:56.298Z,42.36
2022-08-12T06:52:59.296Z,41.36
2022-08-12T06:53:59.269Z,41.44
2022-08-12T06:54:59.296Z,40.72
2022-08-12T06:55:59.275Z,41.04
2022-08-12T06:57:05.362Z,40.45
2022-08-12T06:58:07.376Z,40.62
2022-08-12T06:58:53.211Z,39.83
2022-08-12T06:59:52.197Z,40.45
2022-08-12T07:00:52.227Z,41.14
2022-08-12T07:01:59.253Z,40.61
2022-08-12T07:02:52.538Z,39.91
2022-08-12T07:03:52.138Z,40.62
2022-08-12T07:04:52.138Z,41.04
2022-08-12T07:05:52.116Z,41.14
2022-08-12T07:06:52.101Z,40.90
2022-08-12T07:07:59.601Z,40.27
2022-08-12T07:08:53.082Z,39.87
2022-08-12T07:10:00.147Z,39.56
2022-08-12T07:10:53.041Z,39.42
2022-08-12T07:11:52.030Z,38.02
2022-08-12T07:12:52.591Z,38.02
2022-08-12T07:14:11.763Z,38.12
2022-08-12T07:14:53.017Z,38.42
2022-08-12T07:15:52.023Z,38.54
2022-08-12T07:16:51.982Z,38.51
2022-08-12T07:17:52.331Z,38.49
2022-08-12T07:18:51.944Z,37.71
2022-08-12T07:19:52.171Z,38.01
2022-08-12T07:20:53.121Z,37.89
2022-08-12T07:22:00.370Z,38.48
2022-08-12T07:22:53.569Z,38.07
2022-08-12T07:23:51.924Z,37.16
2022-08-12T07:24:51.878Z,36.87
2022-08-12T07:25:55.213Z,36.30
2022-08-12T07:26:52.842Z,37.48
2022-08-12T07:27:51.855Z,37.30
2022-08-12T07:28:52.150Z,37.61
2022-08-12T07:29:59.414Z,37.85
2022-08-12T07:30:52.801Z,38.85
2022-08-12T07:31:51.792Z,38.43
2022-08-12T07:32:52.124Z,38.01
2022-08-12T07:33:51.762Z,37.71
2022-08-12T07:34:51.772Z,37.93
2022-08-12T07:35:51.753Z,37.63
2022-08-12T07:36:51.734Z,37.53
2022-08-12T07:37:52.031Z,38.26
2022-08-12T07:38:51.708Z,38.34
2022-08-12T07:40:00.261Z,38.22
2022-08-12T07:40:52.681Z,37.99
2022-08-12T07:41:51.673Z,35.63
2022-08-12T07:42:52.032Z,36.84
2022-08-12T07:43:51.644Z,37.59
2022-08-12T07:44:51.865Z,38.61
2022-08-12T07:45:51.652Z,38.79
2022-08-12T07:46:51.603Z,38.33
2022-08-12T07:47:52.033Z,39.03
2022-08-12T07:48:51.601Z,38.51
2022-08-12T07:50:04.325Z,38.10
2022-08-12T07:50:52.564Z,38.28
2022-08-12T07:51:51.933Z,38.26
2022-08-12T07:52:51.522Z,38.24
2022-08-12T07:54:00.670Z,37.73
2022-08-12T07:54:52.509Z,36.76
2022-08-12T07:55:51.508Z,37.27
2022-08-12T07:56:51.483Z,38.28
2022-08-12T07:57:51.900Z,37.87
2022-08-12T07:58:51.482Z,37.47
2022-08-12T07:59:55.578Z,39.00
2022-08-12T08:00:51.449Z,39.32
2022-08-12T08:01:51.467Z,39.20
2022-08-12T08:02:51.413Z,39.62
2022-08-12T08:03:51.783Z,38.53
2022-08-12T08:04:51.383Z,39.11
2022-08-12T08:05:51.373Z,38.28
2022-08-12T08:06:51.371Z,38.20
2022-08-12T08:07:51.370Z,38.39
2022-08-12T08:08:51.341Z,37.66
2022-08-12T08:09:51.694Z,38.18
2022-08-12T08:10:52.333Z,37.76
2022-08-12T08:11:51.342Z,37.83
2022-08-12T08:12:51.294Z,36.65
2022-08-12T08:13:51.274Z,36.61
2022-08-12T08:14:51.265Z,36.30
2022-08-12T08:16:02.879Z,36.02
2022-08-12T08:16:52.264Z,36.53
2022-08-12T08:17:51.256Z,36.84
2022-08-12T08:18:51.281Z,36.66
2022-08-12T08:20:02.820Z,36.57
2022-08-12T08:20:52.656Z,36.86
2022-08-12T08:21:51.188Z,36.25
2022-08-12T08:22:51.469Z,36.15
2022-08-12T08:23:56.108Z,35.84
2022-08-12T08:24:52.144Z,36.53
2022-08-12T08:25:51.122Z,35.63
2022-08-12T08:26:51.508Z,35.84
2022-08-12T08:27:51.165Z,36.04
2022-08-12T08:28:51.085Z,36.04
2022-08-12T08:29:51.083Z,35.72
2022-08-12T08:30:51.182Z,35.80
2022-08-12T08:31:51.484Z,35.82
2022-08-12T08:32:51.077Z,35.53
2022-08-12T08:34:04.157Z,35.21
2022-08-12T08:34:53.295Z,35.13
2022-08-12T08:35:51.461Z,34.82
2022-08-12T08:36:50.988Z,35.13
2022-08-12T08:37:51.004Z,35.23
2022-08-12T08:38:56.086Z,35.92
2022-08-12T08:39:52.021Z,36.05
2022-08-12T08:40:51.275Z,36.61
2022-08-12T08:42:17.783Z,38.35
2022-08-12T08:42:51.915Z,39.34
2022-08-12T08:43:50.910Z,38.98
2022-08-12T08:44:57.795Z,39.50
2022-08-12T08:45:52.266Z,39.81
2022-08-12T08:46:50.875Z,40.52
2022-08-12T08:47:50.865Z,40.74
2022-08-12T08:48:50.862Z,41.24
2022-08-12T08:49:50.835Z,41.14
2022-08-12T08:51:04.395Z,41.75
2022-08-12T08:51:52.135Z,41.53
2022-08-12T08:52:50.835Z,40.94
2022-08-12T08:53:52.911Z,42.03
2022-08-12T08:54:50.764Z,41.53
2022-08-12T08:56:04.622Z,41.61
2022-08-12T08:56:51.750Z,41.31
2022-08-12T08:57:51.174Z,40.12
2022-08-12T08:58:51.084Z,40.42
2022-08-12T08:59:51.675Z,39.04
2022-08-12T09:00:50.685Z,39.83
2022-08-12T09:01:50.736Z,39.53
2022-08-12T09:02:58.559Z,39.75
2022-08-12T09:05:07.352Z,39.65
2022-08-12T09:05:11.267Z,39.55
2022-08-12T09:06:02.038Z,40.07
2022-08-12T09:06:53.697Z,39.37
2022-08-12T09:07:58.483Z,39.28
2022-08-12T09:08:51.586Z,39.37
2022-08-12T09:10:03.369Z,39.57
2022-08-12T09:10:54.221Z,38.88
2022-08-12T09:12:06.845Z,39.49
2022-08-12T09:12:55.133Z,39.97
2022-08-12T09:14:51.515Z,39.47
2022-08-12T09:15:55.101Z,39.67
2022-08-12T09:16:51.488Z,39.47
2022-08-12T09:17:50.476Z,40.26
2022-08-12T09:20:51.457Z,38.85
2022-08-12T09:21:54.890Z,37.88
2022-08-12T09:22:50.639Z,38.48
2022-08-12T09:24:00.418Z,39.15
2022-08-12T09:24:51.377Z,38.44
2022-08-12T09:25:50.777Z,38.15
2022-08-12T09:26:50.353Z,37.75
2022-08-12T09:27:57.877Z,38.07
2022-08-12T09:28:52.881Z,38.36
2022-08-12T09:30:10.970Z,38.07
2022-08-12T09:30:51.715Z,37.96
2022-08-12T09:32:02.955Z,38.56
2022-08-12T09:33:04.716Z,37.75
2022-08-12T09:34:25.473Z,38.05
2022-08-12T09:34:51.258Z,37.47
2022-08-12T09:36:03.259Z,37.75
2022-08-12T09:37:00.007Z,37.95
2022-08-12T09:37:58.576Z,38.32
2022-08-12T09:38:59.220Z,37.43
2022-08-12T09:40:03.305Z,37.62
2022-08-12T09:40:57.147Z,36.92
2022-08-12T09:42:35.203Z,36.52
2022-08-12T09:43:11.296Z,37.22
2022-08-12T09:43:53.976Z,37.22
2022-08-12T09:45:18.345Z,36.33
2022-08-12T09:46:20.861Z,36.94
2022-08-12T09:46:51.153Z,37.12
2022-08-12T09:47:59.670Z,36.82
2022-08-12T09:48:56.223Z,37.22
2022-08-12T09:49:58.745Z,37.12
2022-08-12T09:50:51.929Z,37.02
2022-08-12T09:51:50.549Z,37.22
2022-08-12T09:52:50.484Z,36.62
2022-08-12T09:54:10.644Z,37.22
2022-08-12T09:54:53.834Z,36.43
2022-08-12T09:56:07.122Z,36.41
2022-08-12T09:56:58.400Z,36.41
2022-08-12T09:58:45.671Z,35.99
2022-08-12T09:59:00.225Z,36.69
2022-08-12T10:00:15.531Z,37.48
2022-08-12T10:00:52.658Z,36.87
2022-08-12T10:02:42.882Z,35.76
2022-08-12T10:02:50.901Z,35.19
2022-08-12T10:04:03.348Z,34.89
2022-08-12T10:04:51.712Z,35.68
2022-08-12T10:06:26.617Z,35.28
2022-08-12T10:06:54.998Z,35.30
2022-08-12T10:07:50.824Z,35.50
2022-08-12T10:08:52.590Z,36.39
2022-08-12T10:09:58.570Z,36.19
2022-08-12T10:10:50.797Z,35.78
2022-08-12T10:12:11.968Z,34.89
2022-08-12T10:13:07.420Z,35.07
2022-08-12T10:13:51.082Z,34.30
2022-08-12T10:14:50.064Z,35.28
2022-08-12T10:16:01.851Z,34.69
2022-08-12T10:16:50.724Z,34.69
2022-08-12T10:18:05.789Z,34.67
2022-08-12T10:18:51.817Z,34.78
2022-08-12T10:19:52.036Z,34.58
2022-08-12T10:20:49.677Z,34.27
2022-08-12T10:21:56.668Z,33.89
2022-08-12T10:22:51.104Z,34.67
2022-08-12T10:23:51.637Z,34.95
2022-08-12T10:24:53.298Z,34.55
2022-08-12T10:26:35.488Z,34.64
2022-08-12T10:26:50.584Z,34.33
2022-08-12T10:28:05.388Z,33.94
2022-08-12T10:29:02.127Z,34.33
2022-08-12T10:30:03.290Z,34.41
2022-08-12T10:30:58.244Z,33.36
2022-08-12T10:32:21.092Z,34.66
2022-08-12T10:33:02.562Z,34.06
2022-08-12T10:34:04.917Z,34.20
2022-08-12T10:34:53.384Z,34.61
2022-08-12T10:35:51.663Z,35.30
2022-08-12T10:36:51.924Z,34.59
2022-08-12T10:38:33.757Z,34.31
2022-08-12T10:38:50.444Z,34.31
2022-08-12T10:40:06.281Z,35.28
2022-08-12T10:40:50.454Z,35.58
2022-08-12T10:41:58.043Z,33.69
2022-08-12T10:42:50.395Z,34.10
2022-08-12T10:43:54.766Z,34.30
2022-08-12T10:44:50.359Z,34.28
2022-08-12T10:45:50.121Z,33.80
2022-08-12T10:46:50.083Z,34.99
2022-08-12T10:48:07.641Z,33.98
2022-08-12T10:48:58.297Z,33.77
2022-08-12T10:50:05.049Z,34.17
2022-08-12T10:51:02.151Z,33.65
2022-08-12T10:52:02.814Z,34.05
2022-08-12T10:52:52.629Z,34.33
2022-08-12T10:53:49.244Z,34.13
2022-08-12T10:54:49.605Z,32.75
2022-08-12T10:55:56.201Z,33.15
2022-08-12T10:56:50.570Z,33.23
2022-08-12T10:58:12.799Z,33.33
2022-08-12T10:58:50.189Z,33.13
2022-08-12T11:00:29.263Z,33.31
2022-08-12T11:01:26.139Z,32.82
2022-08-12T11:04:20.635Z,32.70
2022-08-12T11:04:25.546Z,32.41
2022-08-12T11:04:25.901Z,32.80
2022-08-12T11:04:51.288Z,32.92
2022-08-12T11:07:05.820Z,33.15
2022-08-12T11:07:08.560Z,32.73
2022-08-12T11:08:36.753Z,33.44
2022-08-12T11:08:50.146Z,32.75
2022-08-12T11:10:00.525Z,32.65
2022-08-12T11:10:50.013Z,32.67
2022-08-12T11:12:36.137Z,32.45
2022-08-12T11:12:58.737Z,32.65
2022-08-12T11:13:50.001Z,31.75
2022-08-12T11:14:51.252Z,32.56
2022-08-12T11:16:03.492Z,33.53
2022-08-12T11:17:34.358Z,33.11
2022-08-12T11:17:53.563Z,32.92
2022-08-12T11:18:55.144Z,32.70
2022-08-12T11:19:49.893Z,32.70
2022-08-12T11:20:49.154Z,32.41
2022-08-12T11:21:57.018Z,32.01
2022-08-12T11:22:58.855Z,31.93
2022-08-12T11:23:53.715Z,33.03
2022-08-12T11:24:51.693Z,33.72
2022-08-12T11:25:57.855Z,33.01
2022-08-12T11:26:49.879Z,32.92
2022-08-12T11:27:51.299Z,33.29
2022-08-12T11:28:59.329Z,33.00
2022-08-12T11:30:05.871Z,32.80
2022-08-12T11:30:49.764Z,32.39
2022-08-12T11:32:02.218Z,32.89
2022-08-12T11:32:49.743Z,32.67
2022-08-12T11:34:05.092Z,31.79
2022-08-12T11:34:53.811Z,32.59
2022-08-12T11:35:48.702Z,32.10
2022-08-12T11:36:53.428Z,32.00
2022-08-12T11:37:58.875Z,32.89
2022-08-12T11:38:50.742Z,32.57
2022-08-12T11:40:49.924Z,30.88
2022-08-12T11:41:48.582Z,31.36
2022-08-12T11:42:48.731Z,31.66
2022-08-12T11:43:50.151Z,30.95
2022-08-12T11:44:49.560Z,31.05
2022-08-12T11:45:52.892Z,31.33
2022-08-12T11:46:52.418Z,29.96
2022-08-12T11:47:49.198Z,30.35
2022-08-12T11:48:51.386Z,30.45
2022-08-12T11:49:52.023Z,30.08
2022-08-12T11:50:48.486Z,30.30
2022-08-12T11:51:57.731Z,31.57
2022-08-12T11:52:56.449Z,30.90
2022-08-12T11:53:57.566Z,31.31
2022-08-12T11:54:51.044Z,31.92
2022-08-12T11:55:48.411Z,31.80
2022-08-12T11:56:59.642Z,31.69
2022-08-12T11:58:18.274Z,31.38
2022-08-12T12:02:01.647Z,32.48
2022-08-12T12:02:49.356Z,32.77
2022-08-12T12:03:48.734Z,32.77
2022-08-12T12:04:53.033Z,32.97
2022-08-12T12:05:49.334Z,31.88
2022-08-12T12:06:52.899Z,32.59
2022-08-12T12:08:41.218Z,33.20
2022-08-12T12:08:52.949Z,33.22
2022-08-12T12:09:52.268Z,32.93
2022-08-12T12:10:49.276Z,33.15
2022-08-12T12:11:49.449Z,33.64
2022-08-12T12:12:49.552Z,34.01
2022-08-12T12:14:07.252Z,33.42
2022-08-12T12:14:54.726Z,33.03
2022-08-12T12:15:49.207Z,33.22
2022-08-12T12:16:50.890Z,33.03
2022-08-12T12:17:48.229Z,33.62
2022-08-12T12:18:49.129Z,33.64
2022-08-12T12:19:48.154Z,33.75
2022-08-12T12:20:48.470Z,33.26
2022-08-12T12:21:49.553Z,33.58
2022-08-12T12:22:48.111Z,33.77
2022-08-12T12:23:48.063Z,33.87
2022-08-12T12:24:48.099Z,33.95
2022-08-12T12:26:06.935Z,33.75
2022-08-12T12:27:00.856Z,34.55
2022-08-12T12:28:04.077Z,34.05
2022-08-12T12:28:54.373Z,33.84
2022-08-12T12:30:19.682Z,34.05
2022-08-12T12:30:54.840Z,35.12
2022-08-12T12:32:10.153Z,34.23
2022-08-12T12:32:53.339Z,33.74
2022-08-12T12:33:57.748Z,33.94
2022-08-12T12:35:13.918Z,33.75
2022-08-12T12:36:17.589Z,34.05
2022-08-12T12:36:48.901Z,34.27
2022-08-12T12:38:03.752Z,34.55
2022-08-12T12:38:48.906Z,34.44
2022-08-12T12:39:54.719Z,35.12
2022-08-12T12:40:50.208Z,34.63
2022-08-12T12:42:43.854Z,34.23
2022-08-12T12:42:55.675Z,34.03
2022-08-12T12:43:56.624Z,34.43
2022-08-12T12:44:53.403Z,34.05
2022-08-12T12:45:48.796Z,33.95
2022-08-12T12:46:47.777Z,34.13
2022-08-12T12:47:47.778Z,33.74
2022-08-12T12:48:48.180Z,33.72
2022-08-12T12:49:47.728Z,34.30
2022-08-12T12:50:51.538Z,33.69
2022-08-12T12:51:56.383Z,33.89
2022-08-12T12:52:48.698Z,32.80
2022-08-12T12:54:07.278Z,32.39
2022-08-12T12:54:49.140Z,32.08
2022-08-12T12:55:47.689Z,31.97
2022-08-12T12:56:47.659Z,31.48
2022-08-12T12:58:00.453Z,31.38
2022-08-12T12:58:48.647Z,31.87
2022-08-12T12:59:56.234Z,31.66
2022-08-12T13:00:50.150Z,30.85
2022-08-12T13:01:47.581Z,30.97
2022-08-12T13:02:53.656Z,31.66
2022-08-12T13:03:49.516Z,33.02